createdAt,value
2023-05-19T00:01:22.665Z,12.51
2023-05-19T00:03:54.333Z,12.50
2023-05-19T00:06:25.606Z,12.50
2023-05-19T00:08:59.384Z,12.48
2023-05-19T00:11:29.292Z,12.44
2023-05-19T00:13:57.324Z,12.39
2023-05-19T00:16:24.981Z,12.34
2023-05-19T00:18:53.400Z,12.35
2023-05-19T00:21:20.708Z,12.37
2023-05-19T00:23:47.612Z,12.36
2023-05-19T00:26:14.733Z,12.30
2023-05-19T00:28:43.264Z,12.22
2023-05-19T00:31:10.423Z,12.17
2023-05-19T00:33:37.376Z,12.21
2023-05-19T00:36:04.568Z,12.26
2023-05-19T00:38:31.727Z,12.29
2023-05-19T00:40:59.264Z,12.26
2023-05-19T00:43:26.420Z,12.19
2023-05-19T00:45:53.518Z,12.13
2023-05-19T00:48:21.077Z,12.14
2023-05-19T00:50:48.682Z,12.16
2023-05-19T00:53:15.659Z,12.17
2023-05-19T00:55:42.855Z,12.14
2023-05-19T00:58:10.994Z,12.11
2023-05-19T01:00:39.741Z,12.06
2023-05-19T01:03:20.827Z,12.10
2023-05-19T01:05:48.037Z,12.14
2023-05-19T01:08:14.985Z,12.10
2023-05-19T01:10:42.035Z,12.06
2023-05-19T01:13:09.628Z,11.99
2023-05-19T01:15:41.519Z,11.92
2023-05-19T01:18:12.243Z,11.92
2023-05-19T01:20:41.341Z,11.96
2023-05-19T01:23:15.314Z,12.00
2023-05-19T01:25:50.070Z,11.98
2023-05-19T01:28:49.179Z,11.94
2023-05-19T01:31:16.174Z,11.92
2023-05-19T01:33:43.702Z,11.99
2023-05-19T01:36:10.640Z,12.07
2023-05-19T01:38:38.192Z,12.09
2023-05-19T01:41:05.147Z,12.09
2023-05-19T01:43:32.003Z,12.05
2023-05-19T01:45:59.725Z,12.01
2023-05-19T01:48:26.742Z,12.06
2023-05-19T01:50:53.595Z,12.10
2023-05-19T01:53:20.457Z,12.08
2023-05-19T01:55:49.767Z,12.03
2023-05-19T01:58:41.861Z,11.98
2023-05-19T02:01:42.082Z,11.95
2023-05-19T02:04:18.706Z,11.99
2023-05-19T02:07:04.062Z,12.02
2023-05-19T02:10:04.590Z,11.97
2023-05-19T02:12:37.724Z,11.90
2023-05-19T02:15:17.729Z,11.86
2023-05-19T02:17:48.665Z,11.80
2023-05-19T02:20:16.073Z,11.82
2023-05-19T02:22:42.999Z,11.86
2023-05-19T02:25:10.491Z,11.86
2023-05-19T02:27:38.075Z,11.83
2023-05-19T02:30:05.790Z,11.82
2023-05-19T02:32:33.024Z,11.80
2023-05-19T02:35:00.210Z,11.83
2023-05-19T02:37:31.257Z,11.88
2023-05-19T02:39:58.326Z,11.85
2023-05-19T02:42:25.231Z,11.83
2023-05-19T02:44:54.705Z,11.80
2023-05-19T02:47:21.698Z,11.78
2023-05-19T02:49:48.730Z,11.76
2023-05-19T02:55:03.529Z,11.82
2023-05-19T02:57:32.008Z,11.77
2023-05-19T03:00:03.017Z,11.73
2023-05-19T03:02:34.417Z,11.69
2023-05-19T03:05:03.640Z,11.61
2023-05-19T03:07:30.826Z,11.57
2023-05-19T03:09:57.989Z,11.59
2023-05-19T03:12:24.869Z,11.58
2023-05-19T03:14:51.942Z,11.55
2023-05-19T03:17:19.013Z,11.48
2023-05-19T03:19:45.925Z,11.41
2023-05-19T03:22:12.950Z,11.39
2023-05-19T03:24:40.181Z,11.39
2023-05-19T03:27:07.735Z,11.35
2023-05-19T03:29:34.769Z,11.32
2023-05-19T03:32:02.780Z,11.27
2023-05-19T03:34:30.219Z,11.23
2023-05-19T03:36:57.820Z,11.26
2023-05-19T03:39:24.956Z,11.31
2023-05-19T03:41:52.124Z,11.36
2023-05-19T03:44:20.452Z,11.37
2023-05-19T03:46:47.461Z,11.36
2023-05-19T03:49:32.675Z,11.36
2023-05-19T03:52:38.798Z,11.41
2023-05-19T03:55:21.634Z,11.45
2023-05-19T03:57:49.083Z,11.45
2023-05-19T04:00:16.800Z,11.44
2023-05-19T04:02:43.859Z,11.43
2023-05-19T04:05:11.001Z,11.41
2023-05-19T04:07:38.030Z,11.41
2023-05-19T04:10:05.115Z,11.45
2023-05-19T04:12:33.184Z,11.45
2023-05-19T04:15:00.205Z,11.44
2023-05-19T04:17:27.127Z,11.44
2023-05-19T04:19:54.718Z,11.45
2023-05-19T04:22:22.735Z,11.45
2023-05-19T04:24:51.698Z,11.47
2023-05-19T04:27:18.989Z,11.47
2023-05-19T04:29:48.510Z,11.44
2023-05-19T04:32:18.085Z,11.42
2023-05-19T04:34:46.369Z,11.39
2023-05-19T04:37:20.539Z,11.39
2023-05-19T04:39:48.514Z,11.42
2023-05-19T04:42:19.476Z,11.44
2023-05-19T04:44:49.466Z,11.43
2023-05-19T04:47:18.183Z,11.44
2023-05-19T04:49:46.089Z,11.45
2023-05-19T04:52:13.025Z,11.49
2023-05-19T04:54:41.947Z,11.54
2023-05-19T04:57:10.652Z,11.56
2023-05-19T04:59:38.316Z,11.52
2023-05-19T05:02:07.036Z,11.48
2023-05-19T05:04:37.573Z,11.44
2023-05-19T05:07:04.640Z,11.46
2023-05-19T05:09:33.239Z,11.48
2023-05-19T05:12:01.805Z,11.48
2023-05-19T05:14:28.955Z,11.46
2023-05-19T05:16:57.097Z,11.45
2023-05-19T05:19:24.866Z,11.44
2023-05-19T05:21:52.477Z,11.47
2023-05-19T05:24:19.780Z,11.53
2023-05-19T05:26:50.823Z,11.53
2023-05-19T05:29:17.918Z,11.49
2023-05-19T05:31:44.895Z,11.44
2023-05-19T05:34:11.818Z,11.40
2023-05-19T05:36:38.772Z,11.42
2023-05-19T05:39:05.774Z,11.48
2023-05-19T05:41:35.629Z,11.51
2023-05-19T05:44:07.645Z,11.50
2023-05-19T05:46:35.706Z,11.50
2023-05-19T05:49:03.532Z,11.49
2023-05-19T05:51:33.050Z,11.51
2023-05-19T05:54:00.261Z,11.53
2023-05-19T05:56:37.466Z,11.53
2023-05-19T05:59:10.464Z,11.57
2023-05-19T06:01:37.457Z,11.61
2023-05-19T06:04:06.102Z,11.64
2023-05-19T06:06:33.265Z,11.74
2023-05-19T06:09:01.636Z,11.84
2023-05-19T06:11:29.108Z,11.85
2023-05-19T06:13:57.583Z,11.81
2023-05-19T06:16:51.298Z,11.68
2023-05-19T06:19:20.332Z,11.59
2023-05-19T06:21:47.985Z,11.61
2023-05-19T06:24:16.115Z,11.70
2023-05-19T06:26:43.267Z,11.75
2023-05-19T06:29:13.722Z,11.76
2023-05-19T06:31:40.758Z,11.75
2023-05-19T06:34:12.593Z,11.74
2023-05-19T06:36:41.688Z,11.81
2023-05-19T06:39:09.085Z,11.87
2023-05-19T06:41:38.555Z,11.90
2023-05-19T06:44:07.167Z,11.90
2023-05-19T06:46:34.221Z,11.91
2023-05-19T06:49:01.832Z,11.93
2023-05-19T06:51:33.838Z,12.02
2023-05-19T06:54:01.371Z,12.09
2023-05-19T06:56:28.535Z,12.12
2023-05-19T06:58:56.393Z,12.12
2023-05-19T07:01:28.167Z,12.08
2023-05-19T07:03:55.931Z,12.08
2023-05-19T07:06:23.097Z,12.16
2023-05-19T07:08:50.681Z,12.24
2023-05-19T07:11:18.424Z,12.27
2023-05-19T07:13:45.488Z,12.26
2023-05-19T07:16:13.150Z,12.25
2023-05-19T07:18:40.140Z,12.22
2023-05-19T07:21:07.757Z,12.22
2023-05-19T07:23:34.835Z,12.25
2023-05-19T07:26:01.812Z,12.24
2023-05-19T07:28:28.873Z,12.22
2023-05-19T07:30:56.426Z,12.16
2023-05-19T07:33:23.588Z,12.14
2023-05-19T07:35:50.544Z,12.19
2023-05-19T07:38:18.855Z,12.24
2023-05-19T07:40:45.805Z,12.26
2023-05-19T07:43:12.733Z,12.20
2023-05-19T07:45:39.735Z,12.17
2023-05-19T07:48:11.599Z,12.13
2023-05-19T07:50:38.622Z,12.13
2023-05-19T07:53:05.632Z,12.17
2023-05-19T07:55:32.548Z,12.22
2023-05-19T07:57:59.553Z,12.25
2023-05-19T08:00:26.788Z,12.27
2023-05-19T08:02:53.803Z,12.29
2023-05-19T08:05:20.965Z,12.32
2023-05-19T08:07:52.985Z,12.37
2023-05-19T08:10:19.872Z,12.40
2023-05-19T08:12:47.226Z,12.37
2023-05-19T08:15:14.151Z,12.35
2023-05-19T08:17:41.144Z,12.33
2023-05-19T08:20:10.340Z,12.36
2023-05-19T08:22:37.306Z,12.46
2023-05-19T08:25:05.498Z,12.50
2023-05-19T08:27:32.809Z,12.54
2023-05-19T08:29:59.802Z,12.54
2023-05-19T08:32:26.968Z,12.54
2023-05-19T08:34:54.064Z,12.59
2023-05-19T08:37:21.318Z,12.66
2023-05-19T08:39:48.406Z,12.69
2023-05-19T08:42:15.352Z,12.65
2023-05-19T08:44:44.165Z,12.65
2023-05-19T08:47:14.165Z,12.63
2023-05-19T08:49:45.720Z,12.64
2023-05-19T08:52:18.108Z,12.73
2023-05-19T08:55:01.232Z,12.80
2023-05-19T08:57:28.396Z,12.82
2023-05-19T08:59:55.639Z,12.83
2023-05-19T09:02:22.790Z,12.85
2023-05-19T09:04:49.968Z,12.92
2023-05-19T09:07:17.301Z,13.00
2023-05-19T09:09:44.404Z,13.04
2023-05-19T09:12:13.724Z,13.07
2023-05-19T09:14:40.755Z,13.10
2023-05-19T09:17:08.265Z,13.12
2023-05-19T09:19:35.752Z,13.22
2023-05-19T09:22:06.658Z,13.33
2023-05-19T09:24:34.259Z,13.36
2023-05-19T09:27:02.360Z,13.36
2023-05-19T09:29:29.308Z,13.37
2023-05-19T09:32:01.169Z,13.37
2023-05-19T09:34:28.329Z,13.33
2023-05-19T09:36:55.337Z,13.31
2023-05-19T09:39:23.262Z,13.31
2023-05-19T09:41:54.320Z,13.35
2023-05-19T09:44:21.443Z,13.38
2023-05-19T09:46:52.937Z,13.42
2023-05-19T09:49:24.129Z,13.47
2023-05-19T09:51:51.782Z,13.51
2023-05-19T09:54:20.655Z,13.52
2023-05-19T09:56:58.708Z,13.52
2023-05-19T09:59:26.430Z,13.53
2023-05-19T10:01:57.860Z,13.54
2023-05-19T10:04:27.187Z,13.45
2023-05-19T10:06:55.115Z,13.40
2023-05-19T10:09:26.399Z,13.45
2023-05-19T10:11:54.392Z,13.50
2023-05-19T10:14:25.842Z,13.48
2023-05-19T10:16:53.759Z,13.40
2023-05-19T10:19:22.160Z,13.28
2023-05-19T10:21:49.829Z,13.29
2023-05-19T10:24:16.887Z,13.40
2023-05-19T10:26:53.724Z,13.49
2023-05-19T10:29:27.401Z,13.56
2023-05-19T10:31:55.637Z,13.61
2023-05-19T10:34:32.680Z,13.59
2023-05-19T10:37:18.196Z,13.63
2023-05-19T10:39:45.667Z,13.73
2023-05-19T10:42:15.984Z,13.79
2023-05-19T10:44:49.851Z,13.85
2023-05-19T10:47:25.561Z,13.87
2023-05-19T10:49:56.081Z,13.89
2023-05-19T10:52:26.319Z,14.02
2023-05-19T10:54:54.884Z,14.15
2023-05-19T10:57:28.669Z,14.24
2023-05-19T11:00:01.100Z,14.32
2023-05-19T11:02:44.370Z,14.28
2023-05-19T11:05:16.918Z,14.24
2023-05-19T11:07:44.797Z,14.33
2023-05-19T11:10:12.130Z,14.39
2023-05-19T11:12:44.062Z,14.42
2023-05-19T11:15:15.246Z,14.42
2023-05-19T11:17:43.000Z,14.46
2023-05-19T11:20:13.347Z,14.56
2023-05-19T11:22:40.260Z,14.70
2023-05-19T11:25:09.310Z,14.79
2023-05-19T11:27:37.635Z,14.84
2023-05-19T11:30:09.010Z,14.89
2023-05-19T11:32:39.377Z,14.90
2023-05-19T11:35:06.693Z,14.92
2023-05-19T11:37:34.849Z,15.01
2023-05-19T11:40:02.596Z,15.01
2023-05-19T11:42:29.570Z,14.90
2023-05-19T11:44:56.591Z,14.83
2023-05-19T11:47:23.643Z,14.87
2023-05-19T11:49:52.222Z,15.01
2023-05-19T11:52:22.080Z,15.13
2023-05-19T11:54:49.232Z,15.22
2023-05-19T11:57:16.326Z,15.19
2023-05-19T11:59:48.219Z,15.07
2023-05-19T12:02:20.467Z,15.04
2023-05-19T12:04:56.702Z,15.10
2023-05-19T12:07:23.845Z,15.25
2023-05-19T12:09:51.894Z,15.40
2023-05-19T12:12:20.787Z,15.54
2023-05-19T12:14:49.073Z,15.69
2023-05-19T12:17:17.726Z,15.79
2023-05-19T12:19:44.739Z,15.74
2023-05-19T12:22:11.685Z,15.74
2023-05-19T12:24:38.762Z,15.84
2023-05-19T12:27:09.987Z,15.84
2023-05-19T12:29:38.563Z,15.85
2023-05-19T12:32:09.723Z,15.81
2023-05-19T12:34:42.765Z,15.78
2023-05-19T12:37:12.205Z,15.87
2023-05-19T12:39:39.963Z,16.05
2023-05-19T12:42:10.944Z,16.21
2023-05-19T12:44:46.927Z,16.34
2023-05-19T12:47:15.365Z,16.43
2023-05-19T12:50:04.819Z,16.46
2023-05-19T12:52:53.451Z,16.44
2023-05-19T12:55:21.144Z,16.52
2023-05-19T12:57:54.832Z,16.57
2023-05-19T13:00:23.061Z,16.65
2023-05-19T13:03:06.655Z,16.71
2023-05-19T13:05:38.259Z,16.77
2023-05-19T13:08:14.934Z,16.83
2023-05-19T13:10:43.089Z,16.93
2023-05-19T13:13:10.224Z,17.02
2023-05-19T13:15:38.727Z,16.97
2023-05-19T13:18:07.406Z,16.87
2023-05-19T13:20:35.363Z,16.84
2023-05-19T13:23:02.916Z,16.88
2023-05-19T13:25:29.836Z,16.89
2023-05-19T13:27:59.504Z,16.75
2023-05-19T13:30:27.505Z,16.62
2023-05-19T13:32:54.553Z,16.67
2023-05-19T13:35:24.103Z,16.74
2023-05-19T13:37:51.371Z,16.77
2023-05-19T13:40:19.406Z,16.79
2023-05-19T13:42:46.531Z,16.83
2023-05-19T13:45:14.386Z,16.89
2023-05-19T13:47:45.089Z,16.94
2023-05-19T13:50:31.053Z,16.97
2023-05-19T13:52:58.630Z,16.97
2023-05-19T13:55:27.600Z,17.04
2023-05-19T13:57:55.066Z,17.09
2023-05-19T14:00:22.344Z,17.14
2023-05-19T14:02:49.854Z,17.17
2023-05-19T14:05:17.256Z,17.22
2023-05-19T14:07:45.361Z,17.27
2023-05-19T14:10:12.257Z,17.32
2023-05-19T14:12:51.717Z,17.34
2023-05-19T14:15:27.314Z,17.35
2023-05-19T14:17:56.828Z,17.35
2023-05-19T14:20:28.656Z,17.30
2023-05-19T14:22:57.061Z,17.24
2023-05-19T14:25:24.122Z,17.22
2023-05-19T14:27:53.176Z,17.20
2023-05-19T14:30:20.458Z,17.28
2023-05-19T14:32:47.482Z,17.34
2023-05-19T14:35:14.639Z,17.35
2023-05-19T14:37:41.641Z,17.37
2023-05-19T14:40:09.105Z,17.36
2023-05-19T14:42:37.810Z,17.36
2023-05-19T14:45:05.960Z,17.37
2023-05-19T14:47:33.030Z,17.38
2023-05-19T14:50:00.039Z,17.38
2023-05-19T14:52:27.452Z,17.46
2023-05-19T14:54:56.212Z,17.58
2023-05-19T14:57:41.951Z,17.66
2023-05-19T15:00:11.179Z,17.67
2023-05-19T15:02:38.605Z,17.71
2023-05-19T15:05:06.972Z,17.72
2023-05-19T15:07:34.246Z,17.72
2023-05-19T15:12:32.144Z,17.68
2023-05-19T15:15:00.494Z,17.67
2023-05-19T15:17:28.024Z,17.73
2023-05-19T15:19:55.483Z,17.75
2023-05-19T15:22:22.476Z,17.73
2023-05-19T15:24:49.662Z,17.71
2023-05-19T15:27:17.263Z,17.70
2023-05-19T15:29:47.775Z,17.68
2023-05-19T15:32:14.890Z,17.64
2023-05-19T15:34:41.938Z,17.60
2023-05-19T15:37:10.616Z,17.58
2023-05-19T15:39:37.762Z,17.61
2023-05-19T15:42:04.852Z,17.67
2023-05-19T15:44:31.903Z,17.70
2023-05-19T15:47:01.693Z,17.69
2023-05-19T15:49:28.807Z,17.70
2023-05-19T15:51:56.894Z,17.72
2023-05-19T15:54:28.720Z,17.72
2023-05-19T15:56:56.808Z,17.69
2023-05-19T15:59:23.787Z,17.67
2023-05-19T16:01:54.504Z,17.64
2023-05-19T16:04:21.737Z,17.66
2023-05-19T16:06:49.622Z,17.71
2023-05-19T16:09:17.867Z,17.74
2023-05-19T16:11:46.381Z,17.74
2023-05-19T16:14:17.114Z,17.72
2023-05-19T16:16:46.426Z,17.70
2023-05-19T16:19:13.927Z,17.68
2023-05-19T16:24:54.303Z,17.64
2023-05-19T16:27:42.999Z,17.68
2023-05-19T16:30:35.907Z,17.72
2023-05-19T16:33:17.063Z,17.73
2023-05-19T16:35:44.695Z,17.72
2023-05-19T16:38:12.350Z,17.68
2023-05-19T16:40:39.474Z,17.64
2023-05-19T16:43:07.746Z,17.58
2023-05-19T16:45:41.188Z,17.50
2023-05-19T16:48:09.952Z,17.49
2023-05-19T16:50:38.158Z,17.52
2023-05-19T16:53:07.203Z,17.51
2023-05-19T16:55:35.857Z,17.49
2023-05-19T16:58:04.520Z,17.45
2023-05-19T17:00:34.632Z,17.39
2023-05-19T17:03:03.473Z,17.34
2023-05-19T17:05:32.354Z,17.30
2023-05-19T17:07:59.423Z,17.34
2023-05-19T17:10:26.475Z,17.39
2023-05-19T17:12:54.657Z,17.40
2023-05-19T17:15:43.049Z,17.41
2023-05-19T17:18:27.306Z,17.40
2023-05-19T17:20:54.585Z,17.37
2023-05-19T17:23:22.327Z,17.32
2023-05-19T17:25:56.800Z,17.25
2023-05-19T17:28:28.034Z,17.22
2023-05-19T17:30:58.897Z,17.21
2023-05-19T17:33:26.890Z,17.18
2023-05-19T17:36:03.153Z,17.11
2023-05-19T17:38:32.875Z,17.00
2023-05-19T17:41:05.215Z,16.89
2023-05-19T17:43:32.170Z,16.80
2023-05-19T17:46:01.523Z,16.78
2023-05-19T17:48:32.005Z,16.78
2023-05-19T17:51:05.123Z,16.79
2023-05-19T17:53:34.205Z,16.79
2023-05-19T17:56:03.331Z,16.78
2023-05-19T17:58:30.767Z,16.75
2023-05-19T18:00:58.254Z,16.70
2023-05-19T18:03:25.878Z,16.71
2023-05-19T18:05:53.793Z,16.74
2023-05-19T18:08:25.302Z,16.73
2023-05-19T18:10:52.912Z,16.67
2023-05-19T18:13:23.763Z,16.61
2023-05-19T18:15:52.706Z,16.55
2023-05-19T18:18:20.233Z,16.56
2023-05-19T18:20:48.776Z,16.60
2023-05-19T18:23:20.543Z,16.60
2023-05-19T18:25:52.239Z,16.57
2023-05-19T18:28:21.263Z,16.52
2023-05-19T18:30:48.644Z,16.45
2023-05-19T18:33:18.852Z,16.40
2023-05-19T18:35:48.155Z,16.36
2023-05-19T18:38:17.459Z,16.29
2023-05-19T18:41:01.854Z,16.20
2023-05-19T18:43:30.259Z,16.11
2023-05-19T18:45:58.693Z,16.09
2023-05-19T18:48:27.282Z,16.06
2023-05-19T18:50:54.531Z,16.02
2023-05-19T18:53:22.799Z,15.94
2023-05-19T18:55:49.896Z,15.84
2023-05-19T18:58:19.173Z,15.76
2023-05-19T19:00:47.045Z,15.75
2023-05-19T19:03:17.677Z,15.75
2023-05-19T19:05:54.115Z,15.69
2023-05-19T19:08:22.286Z,15.61
2023-05-19T19:10:51.499Z,15.55
2023-05-19T19:13:19.174Z,15.58
2023-05-19T19:15:46.155Z,15.63
2023-05-19T19:18:13.302Z,15.66
2023-05-19T19:20:41.355Z,15.65
2023-05-19T19:23:08.605Z,15.60
2023-05-19T19:25:35.545Z,15.60
2023-05-19T19:28:03.326Z,15.59
2023-05-19T19:30:30.345Z,15.57
2023-05-19T19:32:57.390Z,15.54
2023-05-19T19:35:26.932Z,15.50
2023-05-19T19:37:53.911Z,15.52
2023-05-19T19:40:21.966Z,15.57
2023-05-19T19:42:48.942Z,15.61
2023-05-19T19:45:16.164Z,15.60
2023-05-19T19:47:43.385Z,15.58
2023-05-19T19:50:11.839Z,15.53
2023-05-19T19:52:38.945Z,15.53
2023-05-19T19:55:06.452Z,15.55
2023-05-19T19:57:34.325Z,15.53
2023-05-19T20:00:07.969Z,15.49
2023-05-19T20:02:51.405Z,15.44
2023-05-19T20:05:30.712Z,15.40
2023-05-19T20:08:01.221Z,15.42
2023-05-19T20:10:28.804Z,15.47
2023-05-19T20:12:59.043Z,15.50
2023-05-19T20:15:27.090Z,15.51
2023-05-19T20:17:54.168Z,15.47
2023-05-19T20:21:44.768Z,15.47
2023-05-19T20:24:13.026Z,15.51
2023-05-19T20:26:40.204Z,15.52
2023-05-19T20:29:08.415Z,15.50
2023-05-19T20:31:36.090Z,15.46
2023-05-19T20:34:07.667Z,15.47
2023-05-19T20:36:34.763Z,15.52
2023-05-19T20:39:02.923Z,15.54
2023-05-19T20:41:29.970Z,15.52
2023-05-19T20:44:03.432Z,15.49
2023-05-19T20:46:32.895Z,15.43
2023-05-19T20:55:19.584Z,15.43
2023-05-19T20:57:49.870Z,15.34
2023-05-19T21:00:19.281Z,15.27
